createdAt,value
2023-02-21T00:00:33.413Z,996.2
2023-02-21T00:01:34.353Z,996.2
2023-02-21T00:02:35.394Z,996.2
2023-02-21T00:03:36.367Z,996.2
2023-02-21T00:04:37.614Z,996.3
2023-02-21T00:05:39.540Z,996.3
2023-02-21T00:06:40.454Z,996.2
2023-02-21T00:07:41.436Z,996.2
2023-02-21T00:08:42.454Z,996.2
2023-02-21T00:09:43.436Z,996.2
2023-02-21T00:10:44.526Z,996.2
2023-02-21T00:11:45.482Z,996.1
2023-02-21T00:12:46.416Z,996.2
2023-02-21T00:13:47.425Z,996.2
2023-02-21T00:14:48.408Z,996.2
2023-02-21T00:15:49.414Z,996.2
2023-02-21T00:16:50.474Z,996.2
2023-02-21T00:17:51.435Z,996.2
2023-02-21T00:18:52.414Z,996.1
2023-02-21T00:19:53.437Z,996.2
2023-02-21T00:20:54.716Z,996.2
2023-02-21T00:21:56.435Z,996.2
2023-02-21T00:22:57.395Z,996.2
2023-02-21T00:23:58.409Z,996.2
2023-02-21T00:24:59.435Z,996.3
2023-02-21T00:26:00.459Z,996.2
2023-02-21T00:27:02.330Z,996.2
2023-02-21T00:28:05.194Z,996.2
2023-02-21T00:29:08.474Z,996.2
2023-02-21T00:30:09.556Z,996.1
2023-02-21T00:31:10.507Z,996.2
2023-02-21T00:32:11.468Z,996.2
2023-02-21T00:33:12.497Z,996.2
2023-02-21T00:34:13.455Z,996.2
2023-02-21T00:35:14.436Z,996.1
2023-02-21T00:36:15.430Z,996.2
2023-02-21T00:37:16.360Z,996.2
2023-02-21T00:38:17.422Z,996.1
2023-02-21T00:39:18.432Z,996.2
2023-02-21T00:40:19.333Z,996.2
2023-02-21T00:41:20.402Z,996.2
2023-02-21T00:42:21.363Z,996.2
2023-02-21T00:43:22.391Z,996.2
2023-02-21T00:44:23.511Z,996.2
2023-02-21T00:45:24.533Z,996.2
2023-02-21T00:46:25.433Z,996.2
2023-02-21T00:47:26.451Z,996.2
2023-02-21T00:48:27.396Z,996.2
2023-02-21T00:49:28.530Z,996.2
2023-02-21T00:50:29.473Z,996.2
2023-02-21T00:51:30.611Z,996.2
2023-02-21T00:52:33.170Z,996.2
2023-02-21T00:53:35.394Z,996.2
2023-02-21T00:54:36.701Z,996.3
2023-02-21T00:55:38.870Z,996.3
2023-02-21T00:56:40.493Z,996.3
2023-02-21T00:57:41.410Z,996.3
2023-02-21T00:58:42.378Z,996.3
2023-02-21T00:59:43.389Z,996.2
2023-02-21T01:00:44.415Z,996.2
2023-02-21T01:01:45.550Z,996.3
2023-02-21T01:02:46.430Z,996.2
2023-02-21T01:03:47.451Z,996.2
2023-02-21T01:04:48.416Z,996.3
2023-02-21T01:05:49.476Z,996.2
2023-02-21T01:06:50.401Z,996.2
2023-02-21T01:07:51.361Z,996.1
2023-02-21T01:08:52.386Z,996.2
2023-02-21T01:09:53.455Z,996.1
2023-02-21T01:10:54.463Z,996.1
2023-02-21T01:11:55.449Z,995.5
2023-02-21T01:12:56.416Z,996
2023-02-21T01:13:57.438Z,996
2023-02-21T01:14:58.475Z,996.1
2023-02-21T01:15:59.429Z,996.1
2023-02-21T01:17:11.512Z,996.1
2023-02-21T01:18:01.459Z,996.2
2023-02-21T01:19:02.444Z,996
2023-02-21T01:20:03.397Z,996.1
2023-02-21T01:21:04.504Z,996
2023-02-21T01:22:05.467Z,996
2023-02-21T01:23:06.429Z,996.1
2023-02-21T01:24:07.464Z,996.1
2023-02-21T01:25:08.498Z,996.1
2023-02-21T01:26:09.437Z,996.1
2023-02-21T01:27:10.480Z,996.1
2023-02-21T01:28:11.418Z,996.1
2023-02-21T01:29:12.460Z,996.1
2023-02-21T01:30:13.518Z,996.1
2023-02-21T01:31:14.793Z,996.1
2023-02-21T01:32:15.586Z,996.1
2023-02-21T01:33:16.406Z,996.1
2023-02-21T01:34:18.460Z,996
2023-02-21T01:35:21.482Z,996
2023-02-21T01:36:23.457Z,996.1
2023-02-21T01:37:24.431Z,996.1
2023-02-21T01:38:25.457Z,996
2023-02-21T01:39:26.396Z,995.7
2023-02-21T01:40:27.419Z,995.9
2023-02-21T01:41:28.379Z,995.9
2023-02-21T01:42:29.689Z,996
2023-02-21T01:43:30.477Z,996.1
2023-02-21T01:44:31.484Z,995.4
2023-02-21T01:45:32.417Z,996
2023-02-21T01:46:33.436Z,996
2023-02-21T01:47:34.438Z,996.1
2023-02-21T01:48:35.517Z,996.2
2023-02-21T01:49:36.496Z,996.1
2023-02-21T01:50:37.412Z,996
2023-02-21T01:51:38.445Z,996
2023-02-21T01:52:39.373Z,996.1
2023-02-21T01:53:40.440Z,996
2023-02-21T01:54:41.456Z,996.1
2023-02-21T01:55:42.454Z,996
2023-02-21T01:56:43.476Z,996.1
2023-02-21T01:57:44.479Z,996
2023-02-21T01:58:45.498Z,996
2023-02-21T01:59:46.476Z,996
2023-02-21T02:00:47.441Z,996.1
2023-02-21T02:01:48.483Z,996.1
2023-02-21T02:02:49.477Z,996
2023-02-21T02:06:59.475Z,996
2023-02-21T02:08:00.441Z,996
2023-02-21T02:09:01.443Z,996
2023-02-21T02:10:02.469Z,996
2023-02-21T02:11:03.447Z,995.9
2023-02-21T02:12:04.404Z,995.9
2023-02-21T02:13:05.463Z,995.9
2023-02-21T02:14:06.449Z,995.9
2023-02-21T02:15:07.443Z,996
2023-02-21T02:16:08.530Z,995.9
2023-02-21T02:17:09.441Z,995.9
2023-02-21T02:18:10.615Z,996
2023-02-21T02:19:11.496Z,996
2023-02-21T02:20:12.496Z,995.9
2023-02-21T02:21:13.790Z,996
2023-02-21T02:22:14.484Z,995.9
2023-02-21T02:23:15.542Z,995.9
2023-02-21T02:24:16.423Z,995.8
2023-02-21T02:25:17.453Z,995.8
2023-02-21T02:26:18.428Z,995.8
2023-02-21T02:27:19.489Z,995.8
2023-02-21T02:28:20.468Z,995.8
2023-02-21T02:29:21.514Z,995.8
2023-02-21T02:30:23.524Z,995.8
2023-02-21T02:31:24.529Z,995.9
2023-02-21T02:32:25.453Z,995.9
2023-02-21T02:33:26.445Z,995.8
2023-02-21T02:34:27.422Z,995.8
2023-02-21T02:35:28.402Z,995.8
2023-02-21T02:36:29.619Z,995.9
2023-02-21T02:37:30.605Z,995.8
2023-02-21T02:38:32.444Z,995.9
2023-02-21T02:39:33.485Z,995.8
2023-02-21T02:40:34.445Z,995.8
2023-02-21T02:41:35.498Z,995.8
2023-02-21T02:42:36.427Z,995.8
2023-02-21T02:43:37.485Z,995.8
2023-02-21T02:44:38.501Z,995.8
2023-02-21T02:45:39.508Z,995.8
2023-02-21T02:46:40.579Z,995.8
2023-02-21T02:47:41.460Z,995.8
2023-02-21T02:48:42.465Z,995.8
2023-02-21T02:49:43.462Z,995.8
2023-02-21T02:50:44.459Z,995.8
2023-02-21T02:51:45.458Z,995.8
2023-02-21T02:52:46.459Z,995.7
2023-02-21T02:53:47.455Z,995.7
2023-02-21T02:54:49.579Z,995.7
2023-02-21T02:55:53.877Z,995.7
2023-02-21T02:56:55.460Z,995.8
2023-02-21T02:57:57.562Z,995.8
2023-02-21T02:59:01.371Z,995.8
2023-02-21T03:00:03.516Z,995.8
2023-02-21T03:01:04.608Z,995.8
2023-02-21T03:02:07.916Z,995.7
2023-02-21T03:03:12.583Z,995.8
2023-02-21T03:04:16.016Z,995.7
2023-02-21T03:05:19.036Z,995.7
2023-02-21T03:06:22.045Z,995.8
2023-02-21T03:07:25.193Z,995.8
2023-02-21T03:08:28.516Z,995.8
2023-02-21T03:09:32.496Z,995.8
2023-02-21T03:10:35.516Z,995.7
2023-02-21T03:11:38.220Z,995.7
2023-02-21T03:12:41.744Z,995.7
2023-02-21T03:13:45.898Z,995.7
2023-02-21T03:14:49.869Z,995.7
2023-02-21T03:15:53.311Z,995.3
2023-02-21T03:17:00.146Z,995.6
2023-02-21T03:18:04.379Z,995.6
2023-02-21T03:19:08.873Z,995.6
2023-02-21T03:20:12.876Z,995.6
2023-02-21T03:21:16.438Z,995.6
2023-02-21T03:22:20.159Z,995.7
2023-02-21T03:23:25.036Z,995.7
2023-02-21T03:24:30.480Z,995.7
2023-02-21T03:25:36.106Z,995.7
2023-02-21T03:26:41.337Z,995.6
2023-02-21T03:27:46.557Z,995.6
2023-02-21T03:28:48.548Z,995.7
2023-02-21T03:29:49.519Z,995.7
2023-02-21T03:30:50.560Z,995.7
2023-02-21T03:31:52.973Z,995.6
2023-02-21T03:32:55.517Z,995.6
2023-02-21T03:33:56.693Z,995.6
2023-02-21T03:34:57.497Z,995.5
2023-02-21T03:35:58.485Z,995.5
2023-02-21T03:36:59.517Z,995.5
2023-02-21T03:38:00.502Z,995.6
2023-02-21T03:39:01.472Z,995.5
2023-02-21T03:40:02.458Z,995.6
2023-02-21T03:41:03.538Z,995.6
2023-02-21T03:42:05.736Z,995.6
2023-02-21T03:43:09.180Z,995.6
2023-02-21T03:44:11.595Z,995.6
2023-02-21T03:45:13.424Z,995.6
2023-02-21T03:46:15.574Z,995.5
2023-02-21T03:47:16.556Z,995.5
2023-02-21T03:48:30.078Z,995.6
2023-02-21T03:49:23.554Z,995.6
2023-02-21T03:50:28.181Z,995.6
2023-02-21T03:51:31.938Z,995.6
2023-02-21T03:52:34.464Z,995.7
2023-02-21T03:53:39.478Z,995.7
2023-02-21T03:54:42.843Z,995.6
2023-02-21T03:55:46.360Z,995.7
2023-02-21T03:56:51.298Z,995.7
2023-02-21T03:57:54.525Z,995.6
2023-02-21T03:58:55.624Z,995.6
2023-02-21T03:59:56.527Z,995.7
2023-02-21T04:00:58.402Z,995.7
2023-02-21T04:02:01.468Z,995.7
2023-02-21T04:03:05.528Z,995.7
2023-02-21T04:04:07.529Z,995.6
2023-02-21T04:05:08.872Z,995.7
2023-02-21T04:06:10.540Z,995.7
2023-02-21T04:07:12.951Z,995.7
2023-02-21T04:08:15.600Z,995.7
2023-02-21T04:09:16.515Z,995.6
2023-02-21T04:10:17.581Z,995.7
2023-02-21T04:11:18.465Z,995.7
2023-02-21T04:12:19.552Z,995.7
2023-02-21T04:13:20.565Z,995.6
2023-02-21T04:14:21.565Z,995.5
2023-02-21T04:15:22.540Z,995.5
2023-02-21T04:16:23.584Z,995.5
2023-02-21T04:17:24.606Z,995.6
2023-02-21T04:18:25.520Z,995.6
2023-02-21T04:19:26.543Z,995.6
2023-02-21T04:20:27.563Z,995.5
2023-02-21T04:21:28.561Z,995.6
2023-02-21T04:22:29.721Z,995.7
2023-02-21T04:23:30.500Z,995.7
2023-02-21T04:24:31.531Z,995.7
2023-02-21T04:25:32.504Z,995.7
2023-02-21T04:26:33.504Z,995.7
2023-02-21T04:27:34.811Z,995.7
2023-02-21T04:28:36.542Z,995.7
2023-02-21T04:29:37.690Z,995.7
2023-02-21T04:30:38.503Z,995.8
2023-02-21T04:31:39.656Z,995.7
2023-02-21T04:32:41.597Z,995.7
2023-02-21T04:33:43.460Z,995.7
2023-02-21T04:34:44.552Z,995.7
2023-02-21T04:35:45.513Z,995.7
2023-02-21T04:36:46.563Z,995.7
2023-02-21T04:37:47.583Z,995.7
2023-02-21T04:38:48.502Z,995.7
2023-02-21T04:39:49.520Z,995.7
2023-02-21T04:40:50.722Z,995.7
2023-02-21T04:41:52.524Z,995.8
2023-02-21T04:42:53.488Z,995.7
2023-02-21T04:43:54.501Z,995.7
2023-02-21T04:45:00.203Z,995.7
2023-02-21T04:45:56.567Z,995.7
2023-02-21T04:46:57.543Z,995.6
2023-02-21T04:47:58.573Z,995.7
2023-02-21T04:48:59.534Z,995.6
2023-02-21T04:50:00.618Z,995.6
2023-02-21T04:51:14.674Z,995.6
2023-02-21T04:52:02.574Z,995.5
2023-02-21T04:53:03.545Z,995.6
2023-02-21T04:54:04.504Z,995.6
2023-02-21T04:55:05.803Z,995.6
2023-02-21T04:56:07.513Z,995.6
2023-02-21T04:57:08.562Z,995.6
2023-02-21T04:58:09.504Z,995.6
2023-02-21T04:59:10.590Z,995.6
2023-02-21T05:00:11.546Z,995.7
2023-02-21T05:01:14.921Z,995.7
2023-02-21T05:02:17.510Z,995.7
2023-02-21T05:03:18.629Z,995.7
2023-02-21T05:04:19.588Z,995.7
2023-02-21T05:05:20.606Z,995.7
2023-02-21T05:06:21.612Z,995.7
2023-02-21T05:07:22.563Z,995.7
2023-02-21T05:08:26.405Z,995.7
2023-02-21T05:09:24.642Z,995.7
2023-02-21T05:10:33.792Z,995.7
2023-02-21T05:11:26.545Z,995.4
2023-02-21T05:12:27.547Z,995.7
2023-02-21T05:13:28.480Z,995.7
2023-02-21T05:14:29.920Z,995.7
2023-02-21T05:15:31.520Z,995.7
2023-02-21T05:16:32.614Z,995.7
2023-02-21T05:17:34.556Z,995.7
2023-02-21T05:18:35.741Z,995.7
2023-02-21T05:19:36.565Z,995.7
2023-02-21T05:20:37.494Z,995.7
2023-02-21T05:21:38.565Z,995.7
2023-02-21T05:22:39.589Z,995.7
2023-02-21T05:23:41.059Z,995.7
2023-02-21T05:24:41.562Z,995.6
2023-02-21T05:25:42.540Z,995.6
2023-02-21T05:26:43.600Z,995.6
2023-02-21T05:27:44.565Z,995.6
2023-02-21T05:28:45.497Z,995.6
2023-02-21T05:29:46.577Z,995.6
2023-02-21T05:30:47.666Z,995.7
2023-02-21T05:31:48.624Z,995.6
2023-02-21T05:32:49.563Z,995.6
2023-02-21T05:33:50.668Z,995
2023-02-21T05:34:51.645Z,995.4
2023-02-21T05:35:52.561Z,995.5
2023-02-21T05:36:53.567Z,995.6
2023-02-21T05:37:54.582Z,995.6
2023-02-21T05:38:55.737Z,995.6
2023-02-21T05:39:56.561Z,995.6
2023-02-21T05:40:57.646Z,995.6
2023-02-21T05:41:58.609Z,995.7
2023-02-21T05:42:59.584Z,995.7
2023-02-21T05:44:00.563Z,995.7
2023-02-21T05:45:01.590Z,995.6
2023-02-21T05:46:02.755Z,995.7
2023-02-21T05:47:03.646Z,995.7
2023-02-21T05:48:04.565Z,995.7
2023-02-21T05:49:05.581Z,995.7
2023-02-21T05:50:06.638Z,995.7
2023-02-21T05:51:09.090Z,995.7
2023-02-21T05:52:13.763Z,995.7
2023-02-21T05:53:16.616Z,995.7
2023-02-21T05:54:17.625Z,995.7
2023-02-21T05:55:18.558Z,995.8
2023-02-21T05:56:19.610Z,995.7
2023-02-21T05:57:20.546Z,995.7
2023-02-21T05:58:21.593Z,995.7
2023-02-21T05:59:23.253Z,995.7
2023-02-21T06:00:26.589Z,995.8
2023-02-21T06:01:27.658Z,995.9
2023-02-21T06:02:28.690Z,995.9
2023-02-21T06:03:30.749Z,995.8
2023-02-21T06:04:35.381Z,995.9
2023-02-21T06:05:39.738Z,995.9
2023-02-21T06:06:43.262Z,995.9
2023-02-21T06:07:46.615Z,995.9
2023-02-21T06:08:48.515Z,995.9
2023-02-21T06:09:49.896Z,995.9
2023-02-21T06:10:51.636Z,995.9
2023-02-21T06:11:54.637Z,996
2023-02-21T06:12:58.051Z,996.1
2023-02-21T06:14:01.794Z,996
2023-02-21T06:15:06.278Z,996
2023-02-21T06:16:09.092Z,996.1
2023-02-21T06:17:12.821Z,996.1
2023-02-21T06:18:16.042Z,996.1
2023-02-21T06:19:19.376Z,996
2023-02-21T06:20:23.241Z,996.1
2023-02-21T06:21:28.390Z,996.2
2023-02-21T06:22:31.255Z,996.3
2023-02-21T06:23:34.230Z,996.3
2023-02-21T06:24:39.572Z,996.2
2023-02-21T06:25:42.720Z,996.2
2023-02-21T06:26:45.918Z,996.2
2023-02-21T06:27:49.036Z,996.2
2023-02-21T06:28:52.656Z,996.2
2023-02-21T06:29:55.400Z,996.3
2023-02-21T06:30:57.610Z,996.2
2023-02-21T06:32:00.582Z,996.3
2023-02-21T06:33:03.298Z,996.2
2023-02-21T06:34:07.041Z,996.2
2023-02-21T06:35:09.438Z,996.3
2023-02-21T06:36:12.033Z,996.3
2023-02-21T06:37:16.300Z,996.3
2023-02-21T06:38:19.415Z,996.2
2023-02-21T06:39:24.175Z,996.2
2023-02-21T06:40:26.842Z,996.3
2023-02-21T06:41:28.783Z,996.3
2023-02-21T06:42:32.063Z,996.4
2023-02-21T06:43:34.205Z,996.4
2023-02-21T06:44:37.442Z,996.4
2023-02-21T06:45:40.935Z,996.4
2023-02-21T06:46:43.165Z,996.4
2023-02-21T06:47:46.228Z,996.4
2023-02-21T06:48:48.170Z,996.4
2023-02-21T06:49:51.170Z,996.4
2023-02-21T06:50:53.549Z,996.4
2023-02-21T06:51:56.474Z,996.3
2023-02-21T06:52:58.537Z,996.4
2023-02-21T06:54:02.964Z,996.5
2023-02-21T06:55:05.056Z,996.5
2023-02-21T06:56:06.948Z,996.5
2023-02-21T06:57:11.865Z,996.5
2023-02-21T06:58:13.984Z,996.5
2023-02-21T06:59:16.711Z,996.5
2023-02-21T07:00:20.105Z,996.5
2023-02-21T07:01:23.946Z,996.5
2023-02-21T07:02:27.107Z,996.5
2023-02-21T07:03:30.284Z,996.5
2023-02-21T07:04:34.053Z,996.5
2023-02-21T07:05:37.031Z,996.5
2023-02-21T07:06:39.689Z,996.4
2023-02-21T07:07:42.607Z,996.5
2023-02-21T07:08:45.626Z,996.5
2023-02-21T07:09:48.996Z,996.5
2023-02-21T07:10:53.070Z,996.5
2023-02-21T07:11:57.302Z,996.5
2023-02-21T07:12:59.548Z,996.5
2023-02-21T07:14:03.610Z,996.5
2023-02-21T07:15:07.844Z,996.6
2023-02-21T07:16:12.172Z,996.5
2023-02-21T07:17:15.548Z,996.6
2023-02-21T07:18:18.702Z,996.6
2023-02-21T07:19:22.483Z,996.5
2023-02-21T07:20:25.298Z,996.6
2023-02-21T07:21:29.602Z,996.6
2023-02-21T07:22:30.980Z,996.7
2023-02-21T07:23:33.525Z,996.7
2023-02-21T07:24:37.923Z,996.7
2023-02-21T07:25:41.338Z,996.7
2023-02-21T07:26:46.658Z,996.7
2023-02-21T07:27:49.515Z,996.7
2023-02-21T07:28:53.782Z,996.7
2023-02-21T07:29:56.608Z,996.7
2023-02-21T07:30:59.327Z,996.7
2023-02-21T07:32:03.982Z,996.7
2023-02-21T07:33:07.404Z,996.8
2023-02-21T07:34:11.553Z,996.7
2023-02-21T07:35:16.453Z,996.8
2023-02-21T07:36:20.444Z,996.8
2023-02-21T07:37:23.287Z,996.8
2023-02-21T07:38:27.530Z,996.8
2023-02-21T07:39:32.550Z,996.9
2023-02-21T07:40:34.624Z,996.6
2023-02-21T07:41:35.602Z,996.7
2023-02-21T07:42:36.640Z,996.8
2023-02-21T07:43:38.620Z,996.8
2023-02-21T07:44:42.135Z,996.8
2023-02-21T07:45:45.311Z,996.9
2023-02-21T07:46:47.560Z,996.9
2023-02-21T07:47:48.761Z,996.9
2023-02-21T07:48:53.260Z,996.9
2023-02-21T07:49:56.623Z,996.9
2023-02-21T07:51:00.173Z,996.9
2023-02-21T07:52:04.367Z,996.9
2023-02-21T07:53:06.908Z,996.3
2023-02-21T07:54:09.382Z,996.7
2023-02-21T07:55:15.838Z,996.8
2023-02-21T07:56:19.892Z,996.9
2023-02-21T07:57:23.680Z,997
2023-02-21T07:58:26.249Z,997
2023-02-21T07:59:30.302Z,997
2023-02-21T08:00:32.745Z,997
2023-02-21T08:01:35.375Z,997
2023-02-21T08:02:38.420Z,997
2023-02-21T08:03:41.778Z,997
2023-02-21T08:04:47.228Z,997
2023-02-21T08:05:57.822Z,996.9
2023-02-21T08:07:01.966Z,997
2023-02-21T08:08:07.720Z,997
2023-02-21T08:09:11.642Z,997.1
2023-02-21T08:10:12.846Z,997.1
2023-02-21T08:11:14.058Z,997
2023-02-21T08:12:16.928Z,997
2023-02-21T08:13:19.578Z,997
2023-02-21T08:14:20.641Z,997
2023-02-21T08:15:22.843Z,997
2023-02-21T08:16:26.769Z,997.1
2023-02-21T08:17:33.211Z,997.1
2023-02-21T08:18:39.721Z,997.1
2023-02-21T08:19:43.056Z,997.1
2023-02-21T08:20:46.336Z,997
2023-02-21T08:21:48.179Z,997.1
2023-02-21T08:22:50.653Z,997.1
2023-02-21T08:23:52.678Z,997.1
2023-02-21T08:24:54.624Z,997.1
2023-02-21T08:25:56.275Z,997.1
2023-02-21T08:26:59.037Z,997.1
2023-02-21T08:28:01.624Z,997.2
2023-02-21T08:29:04.529Z,997.1
2023-02-21T08:30:07.310Z,997.1
2023-02-21T08:31:10.812Z,997.2
2023-02-21T08:32:12.648Z,997.2
2023-02-21T08:33:14.782Z,997.1
2023-02-21T08:34:19.215Z,997.2
2023-02-21T08:35:23.177Z,997.2
2023-02-21T08:36:26.337Z,997.2
2023-02-21T08:37:28.659Z,997.1
2023-02-21T08:38:31.756Z,997.2
2023-02-21T08:39:35.130Z,997.2
2023-02-21T08:40:38.026Z,997.1
2023-02-21T08:41:42.136Z,997.1
2023-02-21T08:42:45.620Z,997.2
2023-02-21T08:43:46.947Z,997.2
2023-02-21T08:44:49.220Z,997.2
2023-02-21T08:45:52.969Z,997.1
2023-02-21T08:46:56.124Z,997.2
2023-02-21T08:48:00.224Z,997.1
2023-02-21T08:49:02.697Z,997.1
2023-02-21T08:50:06.179Z,997.2
2023-02-21T08:51:10.762Z,997.2
2023-02-21T08:52:15.698Z,997.2
2023-02-21T08:53:18.586Z,997.2
2023-02-21T08:54:20.856Z,997.2
2023-02-21T08:55:23.502Z,997.2
2023-02-21T08:56:26.179Z,997.2
2023-02-21T08:57:29.623Z,997.3
2023-02-21T08:58:34.940Z,997.2
2023-02-21T08:59:40.213Z,997.2
2023-02-21T09:00:44.950Z,997.2
2023-02-21T09:01:47.960Z,997.2
2023-02-21T09:02:50.746Z,997.2
2023-02-21T09:03:53.979Z,997.2
2023-02-21T09:04:57.996Z,997.3
2023-02-21T09:06:00.358Z,997.2
2023-02-21T09:07:02.658Z,997.2
2023-02-21T09:08:05.007Z,997.2
2023-02-21T09:09:07.677Z,997.2
2023-02-21T09:10:08.743Z,997.2
2023-02-21T09:11:10.484Z,997.3
2023-02-21T09:12:11.668Z,997.2
2023-02-21T09:13:12.977Z,997.2
2023-02-21T09:14:14.672Z,997.2
2023-02-21T09:15:15.746Z,997.3
2023-02-21T09:16:18.772Z,997.2
2023-02-21T09:17:22.069Z,997.2
2023-02-21T09:18:25.582Z,997.3
2023-02-21T09:19:26.687Z,997.2
2023-02-21T09:20:27.624Z,997.3
2023-02-21T09:21:28.571Z,997.2
2023-02-21T09:22:29.680Z,997.2
2023-02-21T09:23:32.864Z,997.2
2023-02-21T09:24:35.641Z,997.3
2023-02-21T09:25:36.700Z,997.3
2023-02-21T09:26:37.623Z,997.3
2023-02-21T09:27:39.419Z,997.3
2023-02-21T09:28:41.640Z,996.6
2023-02-21T09:29:46.595Z,997.1
2023-02-21T09:30:46.741Z,997.1
2023-02-21T09:31:50.672Z,997.2
2023-02-21T09:32:52.348Z,997.2
2023-02-21T09:33:55.951Z,997.1
2023-02-21T09:35:06.300Z,997.2
2023-02-21T09:36:10.574Z,997.3
2023-02-21T09:37:14.724Z,997.2
2023-02-21T09:38:17.406Z,997.2
2023-02-21T09:39:20.091Z,997.2
2023-02-21T09:40:23.468Z,997.2
2023-02-21T09:41:27.570Z,997.2
2023-02-21T09:42:31.655Z,997.3
2023-02-21T09:43:36.227Z,997.2
2023-02-21T09:44:39.471Z,997.2
2023-02-21T09:45:41.444Z,997.2
2023-02-21T09:46:43.022Z,997.3
2023-02-21T09:47:46.303Z,997.3
2023-02-21T09:48:47.703Z,997.3
2023-02-21T09:49:49.582Z,997.3
2023-02-21T09:50:53.275Z,997.4
2023-02-21T09:51:56.233Z,997.3
2023-02-21T09:53:00.343Z,997.5
2023-02-21T09:54:02.741Z,997.4
2023-02-21T09:55:04.598Z,997.4
2023-02-21T09:56:07.548Z,997.4
2023-02-21T09:57:13.522Z,997.3
2023-02-21T09:58:15.447Z,997.4
2023-02-21T09:59:18.065Z,997.3
2023-02-21T10:00:20.160Z,997.4
2023-02-21T10:01:24.625Z,997.4
2023-02-21T10:02:28.977Z,997.4
2023-02-21T10:03:32.486Z,997.3
2023-02-21T10:04:36.202Z,997.4
2023-02-21T10:05:43.159Z,997.3
2023-02-21T10:06:45.621Z,997.4
2023-02-21T10:07:49.040Z,997.3
2023-02-21T10:08:51.585Z,997.3
2023-02-21T10:09:55.288Z,997.3
2023-02-21T10:10:58.958Z,997.4
2023-02-21T10:12:00.664Z,997.4
2023-02-21T10:13:02.857Z,997.4
2023-02-21T10:14:05.755Z,997.5
2023-02-21T10:15:08.664Z,997.5
2023-02-21T10:16:11.958Z,997.5
2023-02-21T10:17:16.180Z,997.5
2023-02-21T10:18:19.620Z,997.6
2023-02-21T10:19:20.964Z,997.6
2023-02-21T10:20:22.719Z,997.7
2023-02-21T10:21:24.380Z,997.7
2023-02-21T10:22:26.698Z,997.7
2023-02-21T10:23:28.342Z,997.7
2023-02-21T10:24:32.458Z,997.8
2023-02-21T10:25:34.677Z,997.6
2023-02-21T10:26:36.122Z,997.7
2023-02-21T10:27:38.562Z,997.7
2023-02-21T10:28:44.365Z,997.7
2023-02-21T10:29:46.758Z,997.7
2023-02-21T10:30:48.313Z,997.8
2023-02-21T10:31:51.767Z,997.8
2023-02-21T10:32:54.161Z,997.8
2023-02-21T10:33:58.953Z,997.8
2023-02-21T10:35:02.880Z,997.8
2023-02-21T10:36:06.876Z,997.8
2023-02-21T10:37:09.874Z,997.7
2023-02-21T10:38:14.712Z,997.8
2023-02-21T10:39:19.121Z,997.8
2023-02-21T10:40:22.520Z,997.8
2023-02-21T10:41:24.636Z,997.8
2023-02-21T10:42:27.659Z,997.8
2023-02-21T10:43:29.736Z,997.9
2023-02-21T10:44:32.194Z,997.8
2023-02-21T10:45:34.736Z,997.9
2023-02-21T10:46:35.734Z,997.8
2023-02-21T10:47:36.747Z,997.9
2023-02-21T10:48:37.813Z,998
2023-02-21T10:49:40.555Z,998
2023-02-21T10:50:43.677Z,998.1
2023-02-21T10:51:44.716Z,998
2023-02-21T10:52:48.238Z,998.1
2023-02-21T10:53:50.736Z,998.1
2023-02-21T10:54:51.955Z,998.1
2023-02-21T10:55:53.723Z,998.1
2023-02-21T10:56:54.788Z,998
2023-02-21T10:57:56.935Z,998
2023-02-21T10:58:59.315Z,998.1
2023-02-21T11:00:03.556Z,998
2023-02-21T11:01:08.032Z,998
2023-02-21T11:02:12.683Z,998
2023-02-21T11:03:16.113Z,998
2023-02-21T11:04:18.698Z,998
2023-02-21T11:05:20.109Z,998.1
2023-02-21T11:06:22.675Z,998
2023-02-21T11:07:23.701Z,998.1
2023-02-21T11:08:24.737Z,998
2023-02-21T11:09:25.976Z,998.1
2023-02-21T11:10:28.653Z,998.1
2023-02-21T11:11:36.135Z,998.1
2023-02-21T11:12:37.079Z,998.2
2023-02-21T11:13:43.839Z,998.2
2023-02-21T11:14:46.318Z,998.1
2023-02-21T11:15:47.713Z,998.1
2023-02-21T11:16:49.117Z,998.1
2023-02-21T11:18:06.004Z,998
2023-02-21T11:19:07.738Z,997.9
2023-02-21T11:20:08.796Z,998
2023-02-21T11:21:09.724Z,998
2023-02-21T11:22:12.276Z,998
2023-02-21T11:23:14.797Z,998
2023-02-21T11:24:15.740Z,997.9
2023-02-21T11:25:16.705Z,997.9
2023-02-21T11:26:18.916Z,997.8
2023-02-21T11:27:20.777Z,997.9
2023-02-21T11:28:22.078Z,997.8
2023-02-21T11:29:26.369Z,997.9
2023-02-21T11:30:28.781Z,997.9
2023-02-21T11:31:30.081Z,998
2023-02-21T11:32:31.099Z,997.9
2023-02-21T11:33:35.221Z,998
2023-02-21T11:34:38.378Z,998
2023-02-21T11:35:41.653Z,998
2023-02-21T11:36:45.294Z,998.1
2023-02-21T11:37:47.432Z,998.1
2023-02-21T11:38:49.165Z,998
2023-02-21T11:39:52.484Z,998
2023-02-21T11:41:00.001Z,998
2023-02-21T11:42:03.892Z,998
2023-02-21T11:43:10.942Z,997.9
2023-02-21T11:44:14.744Z,998
2023-02-21T11:45:15.823Z,998
2023-02-21T11:46:16.780Z,998
2023-02-21T11:47:18.986Z,998
2023-02-21T11:48:20.752Z,998
2023-02-21T11:49:22.184Z,998
2023-02-21T11:50:25.093Z,998
2023-02-21T11:51:26.779Z,998
2023-02-21T11:52:28.522Z,998
2023-02-21T11:53:30.565Z,998.1
2023-02-21T11:54:32.980Z,997.5
2023-02-21T11:55:37.601Z,997.8
2023-02-21T11:56:40.360Z,997.9
2023-02-21T11:57:44.019Z,998.1
2023-02-21T11:58:47.739Z,998
2023-02-21T11:59:48.720Z,998
2023-02-21T12:00:49.828Z,998.1
2023-02-21T12:01:51.778Z,998
2023-02-21T12:02:55.458Z,998.2
2023-02-21T12:03:58.667Z,998.1
2023-02-21T12:05:04.018Z,998.1
2023-02-21T12:06:06.788Z,998.1
2023-02-21T12:07:08.170Z,998.2
2023-02-21T12:08:11.730Z,998.1
2023-02-21T12:09:14.941Z,998.2
2023-02-21T12:10:17.748Z,998.2
2023-02-21T12:11:21.461Z,998.3
2023-02-21T12:12:33.457Z,998.3
2023-02-21T12:13:39.684Z,998.3
2023-02-21T12:14:43.681Z,998.3
2023-02-21T12:15:46.853Z,998.2
2023-02-21T12:16:49.778Z,998.1
2023-02-21T12:17:52.359Z,998.1
2023-02-21T12:18:56.278Z,998.1
2023-02-21T12:19:57.974Z,998.1
2023-02-21T12:21:02.087Z,998.1
2023-02-21T12:22:05.835Z,998.1
2023-02-21T12:23:08.775Z,998.1
2023-02-21T12:24:10.389Z,998
2023-02-21T12:25:12.531Z,998.1
2023-02-21T12:26:14.823Z,998.1
2023-02-21T12:27:16.663Z,998.1
2023-02-21T12:28:19.527Z,998
2023-02-21T12:29:21.538Z,998
2023-02-21T12:30:23.690Z,998.1
2023-02-21T12:31:25.874Z,998.2
2023-02-21T12:32:27.501Z,998.2
2023-02-21T12:33:29.867Z,998.2
2023-02-21T12:34:32.402Z,998.2
2023-02-21T12:35:35.049Z,998.2
2023-02-21T12:36:37.064Z,998.2
2023-02-21T12:37:39.587Z,998.2
2023-02-21T12:38:42.358Z,998.1
2023-02-21T12:39:45.291Z,998.2
2023-02-21T12:40:48.792Z,998.1
2023-02-21T12:41:51.301Z,998.1
2023-02-21T12:42:52.771Z,998.1
2023-02-21T12:43:54.870Z,998.1
2023-02-21T12:44:57.885Z,998.1
2023-02-21T12:46:00.781Z,998.1
2023-02-21T12:47:04.782Z,998.1
2023-02-21T12:48:07.903Z,998.1
2023-02-21T12:49:10.961Z,998.1
2023-02-21T12:50:12.748Z,998.1
2023-02-21T12:51:14.613Z,998.1
2023-02-21T12:52:18.282Z,998.1
2023-02-21T12:53:19.923Z,998.1
2023-02-21T12:54:23.974Z,998.1
2023-02-21T12:55:26.922Z,998.1
2023-02-21T12:56:29.243Z,998.1
2023-02-21T12:57:31.710Z,998.1
2023-02-21T12:58:33.923Z,998.1
2023-02-21T12:59:37.476Z,998
2023-02-21T13:00:39.767Z,998.1
2023-02-21T13:01:40.865Z,998.1
2023-02-21T13:02:42.816Z,998
2023-02-21T13:03:46.004Z,998
2023-02-21T13:04:49.102Z,998
2023-02-21T13:05:53.082Z,998
2023-02-21T13:06:56.457Z,998
2023-02-21T13:07:57.801Z,997.9
2023-02-21T13:09:00.385Z,998
2023-02-21T13:10:02.857Z,998
2023-02-21T13:11:05.260Z,998
2023-02-21T13:12:07.480Z,998
2023-02-21T13:13:10.167Z,998
2023-02-21T13:14:11.797Z,998
2023-02-21T13:15:13.879Z,997.5
2023-02-21T13:16:15.851Z,997.9
2023-02-21T13:17:17.343Z,998
2023-02-21T13:18:19.874Z,998
2023-02-21T13:19:23.359Z,997.9
2023-02-21T13:20:25.919Z,998
2023-02-21T13:21:27.580Z,998
2023-02-21T13:22:29.912Z,998
2023-02-21T13:23:32.118Z,998
2023-02-21T13:24:35.259Z,998.1
2023-02-21T13:25:36.823Z,998
2023-02-21T13:26:38.280Z,998
2023-02-21T13:27:40.835Z,997.9
2023-02-21T13:28:42.440Z,998
2023-02-21T13:29:47.258Z,997.8
2023-02-21T13:30:49.313Z,997.9
2023-02-21T13:31:51.985Z,997.9
2023-02-21T13:32:54.831Z,997.9